Time;durP1;ratioP1;P1;durP2;ratioP2;P2;SDS_P1;SDS_P2;PMS_P1;PMS_P2;Temp;Humidity;BMP_temperature;BMP_pressure;BME280_temperature;BME280_humidity;BME280_pressure;Samples;Min_cycle;Max_cycle;Signal;HPM_P1;HPM_P2
2021/06/27 16:57:55;;;;;;;21.50;14.85;;;;;;;21.75;100.00;98919.69;5112295;27;20420;-61
2021/06/27 17:00:21;;;;;;;25.75;14.77;;;;;;;21.83;100.00;98911.84;5022545;28;20452;-61
2021/06/27 17:02:47;;;;;;;16.95;13.70;;;;;;;22.01;100.00;98904.06;5055392;28;20040;-59
2021/06/27 17:09:19;;;;;;;19.13;14.15;;;;;;;22.19;100.00;98904.16;5049591;28;20420;-62
2021/06/27 17:11:45;;;;;;;19.83;14.15;;;;;;;22.14;100.00;98898.44;5014402;28;20094;-63
2021/06/27 17:18:55;;;;;;;20.73;14.52;;;;;;;22.08;100.00;98893.72;5088358;28;20048;-62
2021/06/27 17:21:22;;;;;;;15.00;12.43;;;;;;;22.09;100.00;98895.38;5032038;28;20133;-62
2021/06/27 17:31:25;;;;;;;19.23;13.77;;;;;;;22.03;100.00;98874.81;5040978;28;19924;-61
2021/06/27 17:34:41;;;;;;;16.75;13.75;;;;;;;21.98;100.00;98875.25;5016078;28;20068;-60
2021/06/27 17:37:09;;;;;;;20.48;14.18;;;;;;;21.98;100.00;98869.94;5062349;28;20047;-60
2021/06/27 17:39:36;;;;;;;23.70;14.82;;;;;;;21.94;100.00;98869.38;5043268;28;20072;-60
2021/06/27 17:42:05;;;;;;;28.02;17.88;;;;;;;21.94;100.00;98873.81;5020477;28;20530;-61
2021/06/27 17:44:31;;;;;;;27.67;20.77;;;;;;;21.92;100.00;98881.06;5031676;28;20033;-59
2021/06/27 17:46:57;;;;;;;29.58;21.92;;;;;;;21.91;100.00;98884.69;5039506;28;20798;-60
2021/06/27 17:49:23;;;;;;;36.22;27.30;;;;;;;21.94;100.00;98873.81;5013248;28;20068;-60
2021/06/27 17:51:49;;;;;;;33.55;26.38;;;;;;;21.94;100.00;98869.38;5007364;28;20068;-59
2021/06/27 18:03:01;;;;;;;22.98;17.25;;;;;;;21.98;100.00;98872.59;4999290;28;20479;-60
2021/06/27 18:17:44;;;;;;;21.33;16.40;;;;;;;22.00;100.00;98864.47;4965962;28;20058;-60
2021/06/27 18:20:10;;;;;;;20.33;15.40;;;;;;;22.01;100.00;98868.81;4993930;28;20048;-61
2021/06/27 18:22:37;;;;;;;20.98;15.35;;;;;;;22.02;100.00;98866.03;5018358;28;20099;-60
2021/06/27 18:29:09;;;;;;;20.60;15.65;;;;;;;22.04;100.00;98850.81;5052949;28;20201;-60
2021/06/27 18:31:35;;;;;;;19.35;14.77;;;;;;;22.06;100.00;98863.91;5025655;28;20131;-62
2021/06/27 18:42:29;;;;;;;22.00;14.63;;;;;;;22.09;100.00;98860.97;5054100;28;20044;-62
2021/06/27 18:44:55;;;;;;;25.13;14.65;;;;;;;22.10;100.00;98858.16;5000719;28;20079;-60
2021/06/27 18:47:21;;;;;;;23.58;15.82;;;;;;;22.12;100.00;98855.38;5021579;28;20519;-62
2021/06/27 18:49:47;;;;;;;21.95;14.05;;;;;;;22.14;100.00;98854.25;5019078;28;20045;-60
2021/06/27 18:52:13;;;;;;;20.48;15.20;;;;;;;22.18;100.00;98860.09;5016928;28;20051;-60
2021/06/27 18:58:08;;;;;;;20.05;13.75;;;;;;;22.21;100.00;98868.59;5040372;28;20049;-62
2021/06/27 19:00:34;;;;;;;17.95;13.02;;;;;;;22.21;100.00;98851.84;5040057;28;20152;-62
2021/06/27 19:03:00;;;;;;;18.35;11.52;;;;;;;22.18;100.00;98853.00;5013759;28;20048;-61
2021/06/27 19:09:08;;;;;;;16.02;12.15;;;;;;;22.10;100.00;98855.53;5010147;28;20529;-61
2021/06/27 19:11:34;;;;;;;16.90;11.93;;;;;;;22.08;100.00;98859.31;5010272;28;20128;-61
2021/06/27 19:35:07;;;;;;;14.13;10.90;;;;;;;21.98;100.00;98847.94;5507983;22;20160;-69
2021/06/27 19:37:33;;;;;;;15.00;10.10;;;;;;;21.98;100.00;98853.22;5042149;28;20081;-72
2021/06/27 19:39:59;;;;;;;15.13;9.52;;;;;;;21.98;100.00;98855.88;5031351;28;20045;-69
2021/06/27 19:42:25;;;;;;;14.25;10.38;;;;;;;21.92;100.00;98841.38;5043246;28;20041;-70
2021/06/27 19:44:50;;;;;;;14.50;9.50;;;;;;;21.99;100.00;98842.47;5046651;28;20041;-70
2021/06/27 19:47:16;;;;;;;13.00;9.73;;;;;;;21.98;100.00;98840.81;5045674;28;20044;-68
2021/06/27 19:49:43;;;;;;;15.93;9.40;;;;;;;21.99;100.00;98845.13;5047077;28;20053;-73
2021/06/27 19:52:08;;;;;;;10.95;8.43;;;;;;;22.01;100.00;98837.88;5044205;28;20108;-74
2021/06/27 19:54:34;;;;;;;12.15;8.85;;;;;;;22.01;100.00;98839.69;5045875;28;20132;-76
2021/06/27 19:57:00;;;;;;;11.77;9.38;;;;;;;22.00;100.00;98844.13;5022060;28;20061;-66
2021/06/27 19:59:26;;;;;;;11.70;8.55;;;;;;;22.01;100.00;98842.34;5040920;28;20136;-73
2021/06/27 20:01:52;;;;;;;10.80;9.25;;;;;;;22.01;100.00;98834.38;5027460;28;20040;-69
2021/06/27 20:04:19;;;;;;;9.30;8.10;;;;;;;21.99;100.00;98839.81;5038763;28;20381;-74
2021/06/27 20:06:45;;;;;;;9.52;7.60;;;;;;;21.95;100.00;98839.28;5033768;28;20132;-72
2021/06/27 20:09:11;;;;;;;10.18;7.85;;;;;;;21.93;100.00;98833.25;5017161;28;20518;-73
2021/06/27 20:11:37;;;;;;;12.18;8.15;;;;;;;21.98;100.00;98842.63;5035332;28;20037;-71
2021/06/27 20:14:03;;;;;;;11.20;7.57;;;;;;;21.96;100.00;98840.13;5036252;28;20068;-58
2021/06/27 20:16:32;;;;;;;9.27;8.00;;;;;;;21.89;100.00;98836.34;5559960;22;20553;-69
2021/06/27 20:18:58;;;;;;;10.70;7.70;;;;;;;21.87;100.00;98840.97;5061243;28;21331;-66
2021/06/27 20:21:23;;;;;;;11.43;8.45;;;;;;;21.81;100.00;98837.09;5061654;28;20048;-61
2021/06/27 20:23:53;;;;;;;11.70;8.00;;;;;;;21.81;100.00;98839.72;5055316;28;20044;-61
2021/06/27 20:26:19;;;;;;;9.20;7.85;;;;;;;21.86;100.00;98834.00;5053237;28;20059;-64
2021/06/27 20:28:44;;;;;;;10.48;8.55;;;;;;;21.81;100.00;98821.22;5049463;28;20033;-63
2021/06/27 20:31:10;;;;;;;12.60;7.97;;;;;;;21.88;100.00;98824.09;5055141;28;20045;-63
2021/06/27 20:33:36;;;;;;;11.27;8.60;;;;;;;21.89;100.00;98825.75;5062704;28;20036;-65
2021/06/27 20:36:02;;;;;;;9.15;7.95;;;;;;;21.85;100.00;98824.38;5046152;28;20075;-61
2021/06/27 20:38:28;;;;;;;12.38;8.27;;;;;;;21.82;100.00;98822.03;5044182;28;20040;-59
2021/06/27 20:40:53;;;;;;;9.63;7.63;;;;;;;21.83;100.00;98823.69;5066755;28;20098;-60
2021/06/27 20:43:19;;;;;;;10.55;7.35;;;;;;;21.80;100.00;98811.59;5049902;28;20049;-62
2021/06/27 20:45:45;;;;;;;14.63;8.05;;;;;;;21.81;100.00;98801.84;5063812;28;20033;-62
2021/06/27 20:48:14;;;;;;;10.35;7.10;;;;;;;21.77;100.00;98797.81;5055625;28;20130;-61
2021/06/27 20:50:40;;;;;;;10.07;8.27;;;;;;;21.81;100.00;98793.91;5041444;28;20040;-60
2021/06/27 20:53:05;;;;;;;7.75;6.95;;;;;;;21.82;100.00;98791.13;5059050;28;20036;-62
2021/06/27 20:55:33;;;;;;;9.48;7.45;;;;;;;21.78;100.00;98779.13;5035211;28;20052;-63
2021/06/27 20:58:00;;;;;;;10.57;7.82;;;;;;;21.80;100.00;98776.34;5039132;28;20180;-62
2021/06/27 21:00:26;;;;;;;11.93;8.55;;;;;;;21.81;100.00;98780.69;5059311;28;20127;-64
2021/06/27 21:02:52;;;;;;;15.65;11.82;;;;;;;21.85;100.00;98787.34;5041331;28;20627;-63
2021/06/27 21:05:28;;;;;;;11.15;8.60;;;;;;;21.87;100.00;98782.75;5535278;22;20028;31
2021/06/27 21:07:54;;;;;;;10.52;7.80;;;;;;;21.82;100.00;98774.41;4948356;28;20062;-64
2021/06/27 21:10:21;;;;;;;9.50;8.45;;;;;;;21.83;100.00;98771.59;4952134;29;20048;-64
2021/06/27 21:12:47;;;;;;;13.50;8.18;;;;;;;21.83;100.00;98774.25;4950299;29;20047;-63
2021/06/27 21:15:13;;;;;;;10.73;8.00;;;;;;;21.83;100.00;98768.13;4950952;28;20117;-63
2021/06/27 21:17:39;;;;;;;9.82;7.80;;;;;;;21.84;100.00;98773.28;5538761;22;20061;-61
2021/06/27 21:20:07;;;;;;;16.63;8.52;;;;;;;21.82;100.00;98774.41;5029711;28;20068;-63
2021/06/27 21:22:32;;;;;;;11.45;7.57;;;;;;;21.83;100.00;98778.69;5022869;28;20049;-62
2021/06/27 21:24:58;;;;;;;13.75;8.93;;;;;;;21.78;100.00;98779.13;5039943;28;20042;-62
2021/06/27 21:27:24;;;;;;;13.07;9.35;;;;;;;21.81;100.00;98776.22;5021156;28;20136;-64
2021/06/27 21:29:49;;;;;;;12.38;8.70;;;;;;;21.82;100.00;98782.34;5005724;28;20045;-63
2021/06/27 21:32:15;;;;;;;10.27;7.40;;;;;;;21.79;100.00;98770.22;5026957;28;20068;-62
2021/06/27 21:34:41;;;;;;;11.55;8.45;;;;;;;21.82;100.00;98767.31;5024669;28;20861;-61
2021/06/27 21:37:06;;;;;;;15.80;9.35;;;;;;;21.79;100.00;98778.16;5010749;28;20050;-61
2021/06/27 21:39:32;;;;;;;12.50;8.88;;;;;;;21.76;100.00;98754.66;5010826;28;20500;-60
2021/06/27 21:41:58;;;;;;;9.13;7.85;;;;;;;21.84;100.00;98780.38;4993915;28;20460;-63
2021/06/27 21:44:24;;;;;;;11.30;8.55;;;;;;;21.79;100.00;98788.75;5031144;28;20133;-62
2021/06/27 21:46:49;;;;;;;11.00;8.18;;;;;;;21.85;100.00;98769.66;5010632;28;20483;-62
2021/06/27 21:49:15;;;;;;;10.82;8.38;;;;;;;21.80;100.00;98758.66;5032669;28;20041;-60
2021/06/27 21:51:41;;;;;;;10.05;8.10;;;;;;;21.78;100.00;98757.97;5026456;28;20041;-60
2021/06/27 21:54:07;;;;;;;9.02;7.85;;;;;;;21.77;100.00;98760.78;5012068;28;20045;-62
2021/06/27 21:56:33;;;;;;;14.27;8.50;;;;;;;21.78;100.00;98759.78;5028007;28;20136;-61
2021/06/27 21:59:00;;;;;;;12.40;8.00;;;;;;;21.85;100.00;98756.41;5019708;28;20448;-61
2021/06/27 22:01:26;;;;;;;10.15;8.20;;;;;;;21.82;100.00;98755.88;5017426;28;20033;-64
2021/06/27 22:03:51;;;;;;;11.27;7.95;;;;;;;21.80;100.00;98757.84;5016442;28;20045;-61
2021/06/27 22:06:17;;;;;;;12.13;8.93;;;;;;;21.83;100.00;98760.19;5032968;28;20470;-61
2021/06/27 22:08:43;;;;;;;9.55;8.27;;;;;;;21.79;100.00;98754.34;5033397;28;20046;-63
2021/06/27 22:11:10;;;;;;;8.88;7.97;;;;;;;21.82;100.00;98750.59;5022377;28;20393;-65
2021/06/27 22:13:36;;;;;;;14.85;8.25;;;;;;;21.76;100.00;98752.00;5024750;28;20041;-62
2021/06/27 22:16:02;;;;;;;14.10;8.48;;;;;;;21.79;100.00;98761.44;5026357;28;20052;-63
2021/06/27 22:18:28;;;;;;;11.48;8.73;;;;;;;21.77;100.00;98758.94;5028852;28;20080;-63
2021/06/27 22:20:55;;;;;;;9.38;8.30;;;;;;;21.76;100.00;98759.94;5023090;28;20420;-63
2021/06/27 22:23:22;;;;;;;10.60;8.75;;;;;;;21.77;100.00;98756.31;5036697;28;20037;-61
2021/06/27 22:25:48;;;;;;;12.80;8.60;;;;;;;21.74;100.00;98759.25;5026962;28;20393;-65
2021/06/27 22:28:13;;;;;;;13.20;8.88;;;;;;;21.80;100.00;98756.03;5033243;28;20095;-66
2021/06/27 22:30:39;;;;;;;19.88;9.73;;;;;;;21.78;100.00;98747.38;5047865;28;20135;-62
2021/06/27 22:33:05;;;;;;;9.15;7.97;;;;;;;21.76;100.00;98745.88;5044901;28;20096;-62
2021/06/27 22:35:31;;;;;;;11.38;8.00;;;;;;;21.77;100.00;98737.78;5045203;28;20040;-63
2021/06/27 22:37:56;;;;;;;9.90;8.05;;;;;;;21.73;100.00;98735.56;5046457;28;20045;-63
2021/06/27 22:40:22;;;;;;;12.38;8.40;;;;;;;21.76;100.00;98724.72;5037586;28;20156;-63
2021/06/27 22:42:48;;;;;;;11.73;8.40;;;;;;;21.76;100.00;98722.06;5033051;28;20077;-63
2021/06/27 22:45:15;;;;;;;9.05;7.78;;;;;;;21.75;100.00;98720.41;5046168;28;20068;-62
2021/06/27 22:47:41;;;;;;;10.27;8.20;;;;;;;21.80;100.00;98720.78;5052782;28;20080;-63
2021/06/27 22:50:09;;;;;;;13.43;7.72;;;;;;;21.78;100.00;98730.69;5037988;28;20073;-62
2021/06/27 22:52:36;;;;;;;10.50;8.55;;;;;;;21.83;100.00;98721.31;5023149;28;20053;-62
2021/06/27 22:55:03;;;;;;;10.23;8.35;;;;;;;21.78;100.00;98715.63;5034126;28;20063;-62
2021/06/27 22:57:28;;;;;;;12.95;8.27;;;;;;;21.77;100.00;98713.97;5014845;28;20521;-63
2021/06/27 22:59:54;;;;;;;10.07;8.15;;;;;;;21.77;100.00;98715.81;5023263;28;20041;-62
2021/06/27 23:02:21;;;;;;;10.23;8.43;;;;;;;21.74;100.00;98710.78;5021377;28;20056;-62
2021/06/27 23:04:46;;;;;;;9.80;8.80;;;;;;;21.83;100.00;98708.09;5016891;28;20424;-62
2021/06/27 23:07:14;;;;;;;15.43;8.73;;;;;;;21.79;100.00;98708.53;5022584;28;20045;-61
2021/06/27 23:09:40;;;;;;;12.38;8.75;;;;;;;21.80;100.00;98703.09;5022403;28;20069;-62
2021/06/27 23:12:06;;;;;;;11.60;9.13;;;;;;;21.78;100.00;98702.41;5027898;28;20065;-61
2021/06/27 23:14:31;;;;;;;10.80;8.18;;;;;;;21.75;100.00;98699.22;5026540;28;20034;-61
2021/06/27 23:16:57;;;;;;;11.90;9.02;;;;;;;21.74;100.00;98693.09;5521956;22;20119;-60
2021/06/27 23:19:23;;;;;;;14.23;8.55;;;;;;;21.70;100.00;98694.38;5017940;28;20045;-61
2021/06/27 23:21:49;;;;;;;15.57;9.05;;;;;;;21.65;100.00;98688.69;5001327;28;20458;-62
2021/06/27 23:24:15;;;;;;;17.45;9.45;;;;;;;21.61;100.00;98678.56;5022562;28;20045;-62
2021/06/27 23:26:41;;;;;;;10.40;9.32;;;;;;;21.57;100.00;98683.28;5004794;28;20145;-61
2021/06/27 23:29:07;;;;;;;16.58;9.38;;;;;;;21.53;100.00;98680.13;5001720;28;20073;-61
2021/06/27 23:31:33;;;;;;;12.05;9.65;;;;;;;21.52;100.00;98686.38;4982591;28;20038;-62
2021/06/27 23:33:59;;;;;;;10.93;9.35;;;;;;;21.52;100.00;98688.19;4991783;28;20054;-62
2021/06/27 23:36:25;;;;;;;16.85;10.93;;;;;;;21.50;100.00;98690.16;4990869;28;20048;-60
2021/06/27 23:38:51;;;;;;;11.77;9.73;;;;;;;21.48;100.00;98681.53;4988580;28;20760;-62
2021/06/27 23:41:17;;;;;;;11.85;9.55;;;;;;;21.47;100.00;98685.16;4987638;28;20046;-62
2021/06/27 23:43:42;;;;;;;11.30;9.75;;;;;;;21.46;100.00;98668.44;4985942;28;20101;-60
2021/06/27 23:46:12;;;;;;;12.70;10.32;;;;;;;21.46;100.00;98670.25;4987823;28;20070;-63
2021/06/27 23:48:38;;;;;;;15.32;9.40;;;;;;;21.45;100.00;98669.44;4974979;28;20046;-62
2021/06/27 23:51:04;;;;;;;15.02;10.68;;;;;;;21.43;100.00;98659.97;4975951;28;20038;-63
2021/06/27 23:53:30;;;;;;;17.52;9.90;;;;;;;21.42;100.00;98656.50;4992223;28;20050;-62
2021/06/27 23:56:04;;;;;;;13.43;9.60;;;;;;;21.42;100.00;98655.66;4992551;28;20046;-62
2021/06/27 23:58:31;;;;;;;11.90;10.55;;;;;;;21.41;100.00;98646.91;4987572;28;20043;-62
